sensor_id;sensor_type;location;lat;lon;timestamp;temperature;humidity
11091;DHT22;5599;52.210;21.046;2022-12-07T00:02:02;3.20;92.40
11091;DHT22;5599;52.210;21.046;2022-12-07T00:04:31;3.30;99.90
11091;DHT22;5599;52.210;21.046;2022-12-07T00:07:00;3.30;98.50
11091;DHT22;5599;52.210;21.046;2022-12-07T00:09:29;3.20;98.80
11091;DHT22;5599;52.210;21.046;2022-12-07T00:11:59;3.20;99.90
11091;DHT22;5599;52.210;21.046;2022-12-07T00:14:28;3.30;99.90
11091;DHT22;5599;52.210;21.046;2022-12-07T00:16:59;3.30;99.90
11091;DHT22;5599;52.210;21.046;2022-12-07T00:19:28;3.30;99.90
11091;DHT22;5599;52.210;21.046;2022-12-07T00:21:57;3.20;98.80
11091;DHT22;5599;52.210;21.046;2022-12-07T00:24:26;3.30;99.90
11091;DHT22;5599;52.210;21.046;2022-12-07T00:26:55;3.30;99.90
11091;DHT22;5599;52.210;21.046;2022-12-07T00:29:25;3.30;99.90
11091;DHT22;5599;52.210;21.046;2022-12-07T00:31:54;3.20;99.90
11091;DHT22;5599;52.210;21.046;2022-12-07T00:34:24;3.20;99.90
11091;DHT22;5599;52.210;21.046;2022-12-07T00:36:54;3.20;99.90
11091;DHT22;5599;52.210;21.046;2022-12-07T00:39:23;3.20;99.90
11091;DHT22;5599;52.210;21.046;2022-12-07T00:41:52;3.30;99.90
11091;DHT22;5599;52.210;21.046;2022-12-07T00:44:21;3.30;99.90
11091;DHT22;5599;52.210;21.046;2022-12-07T00:46:50;3.40;99.90
11091;DHT22;5599;52.210;21.046;2022-12-07T00:49:19;3.40;99.90
11091;DHT22;5599;52.210;21.046;2022-12-07T00:51:49;3.50;99.90
11091;DHT22;5599;52.210;21.046;2022-12-07T00:54:18;3.50;99.90
11091;DHT22;5599;52.210;21.046;2022-12-07T00:56:47;3.50;99.90
11091;DHT22;5599;52.210;21.046;2022-12-07T00:59:16;3.50;99.90
11091;DHT22;5599;52.210;21.046;2022-12-07T01:01:45;3.50;99.90
11091;DHT22;5599;52.210;21.046;2022-12-07T01:04:14;3.50;99.90
11091;DHT22;5599;52.210;21.046;2022-12-07T01:06:43;3.50;99.90
11091;DHT22;5599;52.210;21.046;2022-12-07T01:09:14;3.50;99.90
11091;DHT22;5599;52.210;21.046;2022-12-07T01:11:43;3.50;99.90
11091;DHT22;5599;52.210;21.046;2022-12-07T01:14:12;3.50;99.90
11091;DHT22;5599;52.210;21.046;2022-12-07T01:16:41;3.60;99.90
11091;DHT22;5599;52.210;21.046;2022-12-07T01:19:11;3.70;99.90
11091;DHT22;5599;52.210;21.046;2022-12-07T01:21:40;3.70;99.90
11091;DHT22;5599;52.210;21.046;2022-12-07T01:24:10;3.80;99.90
11091;DHT22;5599;52.210;21.046;2022-12-07T01:26:41;3.80;99.90
11091;DHT22;5599;52.210;21.046;2022-12-07T01:29:10;3.80;99.90
11091;DHT22;5599;52.210;21.046;2022-12-07T01:31:39;3.80;99.90
11091;DHT22;5599;52.210;21.046;2022-12-07T01:34:08;3.90;99.90
11091;DHT22;5599;52.210;21.046;2022-12-07T01:36:38;3.90;99.90
11091;DHT22;5599;52.210;21.046;2022-12-07T01:39:08;3.90;99.90
11091;DHT22;5599;52.210;21.046;2022-12-07T01:41:39;3.90;99.90
11091;DHT22;5599;52.210;21.046;2022-12-07T01:44:19;3.90;99.90
11091;DHT22;5599;52.210;21.046;2022-12-07T01:46:50;4.00;99.90
11091;DHT22;5599;52.210;21.046;2022-12-07T01:49:25;4.00;99.90
11091;DHT22;5599;52.210;21.046;2022-12-07T01:52:01;3.90;99.90
11091;DHT22;5599;52.210;21.046;2022-12-07T01:54:31;4.00;99.90
11091;DHT22;5599;52.210;21.046;2022-12-07T01:57:02;4.00;99.90
11091;DHT22;5599;52.210;21.046;2022-12-07T01:59:33;4.10;99.90
11091;DHT22;5599;52.210;21.046;2022-12-07T02:02:07;4.00;99.90
11091;DHT22;5599;52.210;21.046;2022-12-07T02:04:39;4.00;99.90
11091;DHT22;5599;52.210;21.046;2022-12-07T02:07:08;4.00;99.90
11091;DHT22;5599;52.210;21.046;2022-12-07T02:09:38;4.10;99.90
11091;DHT22;5599;52.210;21.046;2022-12-07T02:12:07;4.00;99.90
11091;DHT22;5599;52.210;21.046;2022-12-07T02:14:37;4.00;99.90
11091;DHT22;5599;52.210;21.046;2022-12-07T02:17:14;3.90;99.90
11091;DHT22;5599;52.210;21.046;2022-12-07T02:20:04;4.00;99.90
11091;DHT22;5599;52.210;21.046;2022-12-07T02:25:46;4.00;99.90
11091;DHT22;5599;52.210;21.046;2022-12-07T02:28:22;3.90;99.90
11091;DHT22;5599;52.210;21.046;2022-12-07T02:31:02;3.90;99.90
11091;DHT22;5599;52.210;21.046;2022-12-07T02:33:36;3.90;99.90
11091;DHT22;5599;52.210;21.046;2022-12-07T02:36:09;3.90;99.90
11091;DHT22;5599;52.210;21.046;2022-12-07T02:38:43;3.90;99.90
11091;DHT22;5599;52.210;21.046;2022-12-07T02:41:19;3.90;99.90
11091;DHT22;5599;52.210;21.046;2022-12-07T02:43:51;3.90;99.90
11091;DHT22;5599;52.210;21.046;2022-12-07T02:46:26;3.80;99.90
11091;DHT22;5599;52.210;21.046;2022-12-07T02:48:56;3.90;99.90
11091;DHT22;5599;52.210;21.046;2022-12-07T02:51:30;3.80;99.90
11091;DHT22;5599;52.210;21.046;2022-12-07T02:54:00;3.90;99.90
11091;DHT22;5599;52.210;21.046;2022-12-07T02:56:38;3.80;99.90
11091;DHT22;5599;52.210;21.046;2022-12-07T02:59:17;3.80;99.90
11091;DHT22;5599;52.210;21.046;2022-12-07T03:01:54;3.70;99.90
11091;DHT22;5599;52.210;21.046;2022-12-07T03:04:35;3.70;99.90
11091;DHT22;5599;52.210;21.046;2022-12-07T03:07:14;3.70;99.90
11091;DHT22;5599;52.210;21.046;2022-12-07T03:09:52;3.70;99.90
11091;DHT22;5599;52.210;21.046;2022-12-07T03:12:28;3.70;99.90
11091;DHT22;5599;52.210;21.046;2022-12-07T03:15:02;3.60;99.90
11091;DHT22;5599;52.210;21.046;2022-12-07T03:17:35;3.60;99.90
11091;DHT22;5599;52.210;21.046;2022-12-07T03:20:08;3.60;99.90
11091;DHT22;5599;52.210;21.046;2022-12-07T03:22:40;3.70;99.90
11091;DHT22;5599;52.210;21.046;2022-12-07T03:25:11;3.70;99.90
11091;DHT22;5599;52.210;21.046;2022-12-07T03:27:46;3.60;99.90
11091;DHT22;5599;52.210;21.046;2022-12-07T03:30:20;3.60;99.90
11091;DHT22;5599;52.210;21.046;2022-12-07T03:32:55;3.60;99.90
11091;DHT22;5599;52.210;21.046;2022-12-07T03:35:30;3.60;99.90
11091;DHT22;5599;52.210;21.046;2022-12-07T03:40:49;3.70;99.90
11091;DHT22;5599;52.210;21.046;2022-12-07T03:43:19;3.60;99.90
11091;DHT22;5599;52.210;21.046;2022-12-07T03:45:56;3.60;99.90
11091;DHT22;5599;52.210;21.046;2022-12-07T03:48:34;3.60;99.90
11091;DHT22;5599;52.210;21.046;2022-12-07T03:51:11;3.60;99.90
11091;DHT22;5599;52.210;21.046;2022-12-07T03:53:46;3.60;99.90
11091;DHT22;5599;52.210;21.046;2022-12-07T03:56:17;3.60;99.90
11091;DHT22;5599;52.210;21.046;2022-12-07T03:58:47;3.60;99.90
11091;DHT22;5599;52.210;21.046;2022-12-07T04:01:18;3.50;99.90
11091;DHT22;5599;52.210;21.046;2022-12-07T04:03:48;3.50;99.90
11091;DHT22;5599;52.210;21.046;2022-12-07T04:06:18;3.40;99.90
11091;DHT22;5599;52.210;21.046;2022-12-07T04:08:48;3.40;99.90
11091;DHT22;5599;52.210;21.046;2022-12-07T04:11:17;3.50;99.90
11091;DHT22;5599;52.210;21.046;2022-12-07T04:13:46;3.50;99.90
11091;DHT22;5599;52.210;21.046;2022-12-07T04:16:33;3.40;99.90
11091;DHT22;5599;52.210;21.046;2022-12-07T04:19:12;3.40;99.90
11091;DHT22;5599;52.210;21.046;2022-12-07T04:21:41;3.40;99.90
11091;DHT22;5599;52.210;21.046;2022-12-07T04:24:11;3.40;99.90
11091;DHT22;5599;52.210;21.046;2022-12-07T04:26:40;3.40;99.90
11091;DHT22;5599;52.210;21.046;2022-12-07T04:29:10;3.40;99.90
11091;DHT22;5599;52.210;21.046;2022-12-07T04:31:39;3.40;99.90
11091;DHT22;5599;52.210;21.046;2022-12-07T04:34:09;3.30;99.90
11091;DHT22;5599;52.210;21.046;2022-12-07T04:36:40;3.30;99.90
11091;DHT22;5599;52.210;21.046;2022-12-07T04:39:20;3.30;99.90
11091;DHT22;5599;52.210;21.046;2022-12-07T04:41:50;3.30;99.90
11091;DHT22;5599;52.210;21.046;2022-12-07T04:44:20;3.30;99.90
11091;DHT22;5599;52.210;21.046;2022-12-07T04:46:49;3.20;99.90
11091;DHT22;5599;52.210;21.046;2022-12-07T04:49:19;3.20;99.90
11091;DHT22;5599;52.210;21.046;2022-12-07T04:51:49;3.20;99.90
11091;DHT22;5599;52.210;21.046;2022-12-07T04:54:19;3.20;99.90
11091;DHT22;5599;52.210;21.046;2022-12-07T04:56:48;3.20;99.90
11091;DHT22;5599;52.210;21.046;2022-12-07T04:59:17;3.10;99.90
11091;DHT22;5599;52.210;21.046;2022-12-07T05:01:46;3.10;99.90
11091;DHT22;5599;52.210;21.046;2022-12-07T05:04:15;3.20;99.90
11091;DHT22;5599;52.210;21.046;2022-12-07T05:06:45;3.20;99.90
11091;DHT22;5599;52.210;21.046;2022-12-07T05:09:15;3.20;99.90
11091;DHT22;5599;52.210;21.046;2022-12-07T05:11:44;3.30;99.90
11091;DHT22;5599;52.210;21.046;2022-12-07T05:14:15;3.30;99.90
11091;DHT22;5599;52.210;21.046;2022-12-07T05:16:46;3.20;99.90
11091;DHT22;5599;52.210;21.046;2022-12-07T05:19:17;3.30;99.90
11091;DHT22;5599;52.210;21.046;2022-12-07T05:21:46;3.30;99.90
11091;DHT22;5599;52.210;21.046;2022-12-07T05:24:17;3.30;99.90
11091;DHT22;5599;52.210;21.046;2022-12-07T05:26:46;3.20;99.90
11091;DHT22;5599;52.210;21.046;2022-12-07T05:29:16;3.10;99.90
11091;DHT22;5599;52.210;21.046;2022-12-07T05:31:45;3.10;99.90
11091;DHT22;5599;52.210;21.046;2022-12-07T05:34:14;3.10;99.90
11091;DHT22;5599;52.210;21.046;2022-12-07T05:36:43;3.10;99.90
11091;DHT22;5599;52.210;21.046;2022-12-07T05:39:12;3.00;99.90
11091;DHT22;5599;52.210;21.046;2022-12-07T05:41:43;3.00;99.90
11091;DHT22;5599;52.210;21.046;2022-12-07T05:44:29;3.00;99.90
11091;DHT22;5599;52.210;21.046;2022-12-07T05:46:58;3.00;99.90
11091;DHT22;5599;52.210;21.046;2022-12-07T05:49:27;3.00;99.90
11091;DHT22;5599;52.210;21.046;2022-12-07T05:51:56;2.90;99.90
11091;DHT22;5599;52.210;21.046;2022-12-07T05:54:26;2.90;99.90
11091;DHT22;5599;52.210;21.046;2022-12-07T05:56:56;2.90;99.90
11091;DHT22;5599;52.210;21.046;2022-12-07T05:59:25;2.90;99.90
11091;DHT22;5599;52.210;21.046;2022-12-07T06:01:56;2.90;99.90
11091;DHT22;5599;52.210;21.046;2022-12-07T06:04:27;2.90;99.90
11091;DHT22;5599;52.210;21.046;2022-12-07T06:06:57;2.90;99.90
11091;DHT22;5599;52.210;21.046;2022-12-07T06:09:27;2.90;99.90
11091;DHT22;5599;52.210;21.046;2022-12-07T06:11:58;2.90;99.90
11091;DHT22;5599;52.210;21.046;2022-12-07T06:14:45;2.90;99.90
11091;DHT22;5599;52.210;21.046;2022-12-07T06:17:14;2.90;99.90
11091;DHT22;5599;52.210;21.046;2022-12-07T06:19:43;2.90;99.90
11091;DHT22;5599;52.210;21.046;2022-12-07T06:22:13;2.90;99.90
11091;DHT22;5599;52.210;21.046;2022-12-07T06:24:43;2.90;99.90
11091;DHT22;5599;52.210;21.046;2022-12-07T06:27:14;2.90;99.90
11091;DHT22;5599;52.210;21.046;2022-12-07T06:29:43;2.90;99.90
11091;DHT22;5599;52.210;21.046;2022-12-07T06:32:12;2.90;99.90
11091;DHT22;5599;52.210;21.046;2022-12-07T06:34:41;2.80;99.90
11091;DHT22;5599;52.210;21.046;2022-12-07T06:37:10;2.90;99.90
11091;DHT22;5599;52.210;21.046;2022-12-07T06:39:39;2.80;99.90
11091;DHT22;5599;52.210;21.046;2022-12-07T06:42:08;2.80;99.90
11091;DHT22;5599;52.210;21.046;2022-12-07T06:44:39;2.80;99.90
11091;DHT22;5599;52.210;21.046;2022-12-07T06:47:08;2.90;99.90
11091;DHT22;5599;52.210;21.046;2022-12-07T06:49:58;2.80;99.90
11091;DHT22;5599;52.210;21.046;2022-12-07T06:52:28;2.70;99.90
11091;DHT22;5599;52.210;21.046;2022-12-07T06:54:57;2.70;99.90
11091;DHT22;5599;52.210;21.046;2022-12-07T06:57:26;2.60;99.90
11091;DHT22;5599;52.210;21.046;2022-12-07T06:59:57;2.70;99.90
11091;DHT22;5599;52.210;21.046;2022-12-07T07:02:27;2.60;99.90
11091;DHT22;5599;52.210;21.046;2022-12-07T07:04:56;2.60;99.90
11091;DHT22;5599;52.210;21.046;2022-12-07T07:07:25;2.60;99.90
11091;DHT22;5599;52.210;21.046;2022-12-07T07:09:54;2.60;99.90
11091;DHT22;5599;52.210;21.046;2022-12-07T07:12:23;2.70;99.90
11091;DHT22;5599;52.210;21.046;2022-12-07T07:14:52;2.70;99.90
11091;DHT22;5599;52.210;21.046;2022-12-07T07:17:23;2.70;99.90
11091;DHT22;5599;52.210;21.046;2022-12-07T07:19:51;2.80;99.90
11091;DHT22;5599;52.210;21.046;2022-12-07T07:22:20;2.80;99.90
11091;DHT22;5599;52.210;21.046;2022-12-07T07:24:50;2.80;99.90
11091;DHT22;5599;52.210;21.046;2022-12-07T07:27:19;2.80;99.90
11091;DHT22;5599;52.210;21.046;2022-12-07T07:29:48;2.70;99.90
11091;DHT22;5599;52.210;21.046;2022-12-07T07:32:17;2.80;99.90
11091;DHT22;5599;52.210;21.046;2022-12-07T07:34:48;2.70;99.90
11091;DHT22;5599;52.210;21.046;2022-12-07T07:37:17;2.80;99.90
11091;DHT22;5599;52.210;21.046;2022-12-07T07:39:48;2.80;99.90
11091;DHT22;5599;52.210;21.046;2022-12-07T07:42:17;2.70;99.90
11091;DHT22;5599;52.210;21.046;2022-12-07T07:44:46;2.70;99.90
11091;DHT22;5599;52.210;21.046;2022-12-07T07:47:16;2.70;99.90
11091;DHT22;5599;52.210;21.046;2022-12-07T07:49:45;2.70;99.90
11091;DHT22;5599;52.210;21.046;2022-12-07T07:52:16;2.70;99.90
11091;DHT22;5599;52.210;21.046;2022-12-07T07:54:45;2.80;99.90
11091;DHT22;5599;52.210;21.046;2022-12-07T07:57:15;2.80;99.90
11091;DHT22;5599;52.210;21.046;2022-12-07T07:59:44;2.80;99.90
11091;DHT22;5599;52.210;21.046;2022-12-07T08:02:15;2.80;99.90
11091;DHT22;5599;52.210;21.046;2022-12-07T08:04:44;2.80;99.90
11091;DHT22;5599;52.210;21.046;2022-12-07T08:07:16;2.90;99.90
11091;DHT22;5599;52.210;21.046;2022-12-07T08:09:45;2.90;99.90
11091;DHT22;5599;52.210;21.046;2022-12-07T08:12:14;2.90;99.90
11091;DHT22;5599;52.210;21.046;2022-12-07T08:14:43;2.90;99.90
11091;DHT22;5599;52.210;21.046;2022-12-07T08:17:12;2.90;99.90
11091;DHT22;5599;52.210;21.046;2022-12-07T08:19:41;2.90;99.90
11091;DHT22;5599;52.210;21.046;2022-12-07T08:22:10;2.90;99.90
11091;DHT22;5599;52.210;21.046;2022-12-07T08:24:41;2.90;99.90
11091;DHT22;5599;52.210;21.046;2022-12-07T08:27:10;2.90;99.90
11091;DHT22;5599;52.210;21.046;2022-12-07T08:29:39;2.90;99.90
11091;DHT22;5599;52.210;21.046;2022-12-07T08:32:08;3.00;99.90
11091;DHT22;5599;52.210;21.046;2022-12-07T08:34:37;3.00;99.90
11091;DHT22;5599;52.210;21.046;2022-12-07T08:37:06;3.10;99.90
11091;DHT22;5599;52.210;21.046;2022-12-07T08:39:35;3.00;99.90
11091;DHT22;5599;52.210;21.046;2022-12-07T08:42:06;3.00;99.90
11091;DHT22;5599;52.210;21.046;2022-12-07T08:44:35;3.00;99.90
11091;DHT22;5599;52.210;21.046;2022-12-07T08:47:05;3.00;99.90
11091;DHT22;5599;52.210;21.046;2022-12-07T08:49:37;3.10;99.90
11091;DHT22;5599;52.210;21.046;2022-12-07T08:52:07;3.20;99.90
11091;DHT22;5599;52.210;21.046;2022-12-07T08:54:38;3.10;99.90
11091;DHT22;5599;52.210;21.046;2022-12-07T08:57:10;3.10;99.90
11091;DHT22;5599;52.210;21.046;2022-12-07T08:59:40;3.20;99.90
11091;DHT22;5599;52.210;21.046;2022-12-07T09:02:09;3.20;99.90
11091;DHT22;5599;52.210;21.046;2022-12-07T09:04:38;3.30;99.90
11091;DHT22;5599;52.210;21.046;2022-12-07T09:07:07;3.40;99.90
11091;DHT22;5599;52.210;21.046;2022-12-07T09:09:36;3.40;99.90
11091;DHT22;5599;52.210;21.046;2022-12-07T09:12:05;3.50;99.90
11091;DHT22;5599;52.210;21.046;2022-12-07T09:14:36;3.50;99.90
11091;DHT22;5599;52.210;21.046;2022-12-07T09:17:06;3.50;99.90
11091;DHT22;5599;52.210;21.046;2022-12-07T09:19:36;3.60;99.90
11091;DHT22;5599;52.210;21.046;2022-12-07T09:22:05;3.70;99.90
11091;DHT22;5599;52.210;21.046;2022-12-07T09:24:35;3.70;99.90
11091;DHT22;5599;52.210;21.046;2022-12-07T09:27:04;3.70;99.90
11091;DHT22;5599;52.210;21.046;2022-12-07T09:29:33;3.80;99.90
11091;DHT22;5599;52.210;21.046;2022-12-07T09:32:04;3.80;99.90
11091;DHT22;5599;52.210;21.046;2022-12-07T09:34:38;3.80;62.30
11091;DHT22;5599;52.210;21.046;2022-12-07T09:37:07;3.80;71.70
11091;DHT22;5599;52.210;21.046;2022-12-07T09:39:38;3.80;18.50
11091;DHT22;5599;52.210;21.046;2022-12-07T09:42:25;3.90;71.10
11091;DHT22;5599;52.210;21.046;2022-12-07T09:44:55;4.00;20.40
11091;DHT22;5599;52.210;21.046;2022-12-07T09:47:27;4.00;1.00
11091;DHT22;5599;52.210;21.046;2022-12-07T09:50:03;4.00;1.00
11091;DHT22;5599;52.210;21.046;2022-12-07T09:52:33;4.00;1.00
11091;DHT22;5599;52.210;21.046;2022-12-07T09:55:12;4.00;1.00
11091;DHT22;5599;52.210;21.046;2022-12-07T09:57:42;4.10;1.00
11091;DHT22;5599;52.210;21.046;2022-12-07T10:00:15;4.10;1.00
11091;DHT22;5599;52.210;21.046;2022-12-07T10:02:47;4.10;1.00
11091;DHT22;5599;52.210;21.046;2022-12-07T10:05:22;4.20;1.00
11091;DHT22;5599;52.210;21.046;2022-12-07T10:07:53;4.20;1.00
11091;DHT22;5599;52.210;21.046;2022-12-07T10:10:25;4.20;1.00
11091;DHT22;5599;52.210;21.046;2022-12-07T10:12:57;4.20;1.00
11091;DHT22;5599;52.210;21.046;2022-12-07T10:15:46;4.20;99.90
11091;DHT22;5599;52.210;21.046;2022-12-07T10:18:31;4.30;99.90
11091;DHT22;5599;52.210;21.046;2022-12-07T10:21:04;4.40;99.90
11091;DHT22;5599;52.210;21.046;2022-12-07T10:23:35;4.30;66.20
11091;DHT22;5599;52.210;21.046;2022-12-07T10:26:20;4.40;99.90
11091;DHT22;5599;52.210;21.046;2022-12-07T10:28:50;4.40;27.90
11091;DHT22;5599;52.210;21.046;2022-12-07T10:31:21;4.30;1.00
11091;DHT22;5599;52.210;21.046;2022-12-07T10:33:54;4.30;41.70
11091;DHT22;5599;52.210;21.046;2022-12-07T10:36:25;4.30;1.00
11091;DHT22;5599;52.210;21.046;2022-12-07T10:39:00;4.40;99.90
11091;DHT22;5599;52.210;21.046;2022-12-07T10:41:31;4.40;95.20
11091;DHT22;5599;52.210;21.046;2022-12-07T10:44:00;4.40;1.00
11091;DHT22;5599;52.210;21.046;2022-12-07T10:49:54;4.30;99.90
11091;DHT22;5599;52.210;21.046;2022-12-07T10:52:38;4.30;1.00
11091;DHT22;5599;52.210;21.046;2022-12-07T10:55:20;4.30;1.00
11091;DHT22;5599;52.210;21.046;2022-12-07T10:58:07;4.30;1.00
11091;DHT22;5599;52.210;21.046;2022-12-07T11:00:53;4.30;1.00
11091;DHT22;5599;52.210;21.046;2022-12-07T11:03:42;4.40;1.00
11091;DHT22;5599;52.210;21.046;2022-12-07T11:06:22;4.30;99.90
11091;DHT22;5599;52.210;21.046;2022-12-07T11:09:04;4.30;1.00
11091;DHT22;5599;52.210;21.046;2022-12-07T11:11:43;4.40;1.00
11091;DHT22;5599;52.210;21.046;2022-12-07T11:14:20;4.40;99.90
11091;DHT22;5599;52.210;21.046;2022-12-07T11:16:56;4.40;99.90
11091;DHT22;5599;52.210;21.046;2022-12-07T11:19:46;4.40;99.90
11091;DHT22;5599;52.210;21.046;2022-12-07T11:22:29;4.30;1.00
11091;DHT22;5599;52.210;21.046;2022-12-07T11:25:06;4.40;1.00
11091;DHT22;5599;52.210;21.046;2022-12-07T11:27:48;4.40;1.00
11091;DHT22;5599;52.210;21.046;2022-12-07T11:30:26;4.40;1.00
11091;DHT22;5599;52.210;21.046;2022-12-07T11:33:09;4.40;1.00
11091;DHT22;5599;52.210;21.046;2022-12-07T11:35:50;4.40;1.00
11091;DHT22;5599;52.210;21.046;2022-12-07T11:38:28;4.30;1.00
11091;DHT22;5599;52.210;21.046;2022-12-07T11:41:02;4.40;1.00
11091;DHT22;5599;52.210;21.046;2022-12-07T11:43:55;4.50;1.00
11091;DHT22;5599;52.210;21.046;2022-12-07T11:46:27;4.40;1.00
11091;DHT22;5599;52.210;21.046;2022-12-07T11:49:02;4.50;99.90
11091;DHT22;5599;52.210;21.046;2022-12-07T11:51:35;4.40;1.00
11091;DHT22;5599;52.210;21.046;2022-12-07T11:54:13;4.50;1.00
11091;DHT22;5599;52.210;21.046;2022-12-07T11:56:44;4.50;1.00
11091;DHT22;5599;52.210;21.046;2022-12-07T11:59:19;4.50;1.00
11091;DHT22;5599;52.210;21.046;2022-12-07T12:01:53;4.50;1.00
11091;DHT22;5599;52.210;21.046;2022-12-07T12:04:44;4.60;1.00
11091;DHT22;5599;52.210;21.046;2022-12-07T12:07:19;4.60;99.90
11091;DHT22;5599;52.210;21.046;2022-12-07T12:10:18;4.60;1.00
11091;DHT22;5599;52.210;21.046;2022-12-07T12:16:12;4.60;99.90
11091;DHT22;5599;52.210;21.046;2022-12-07T12:19:02;4.60;46.90
11091;DHT22;5599;52.210;21.046;2022-12-07T12:21:32;4.60;21.60
11091;DHT22;5599;52.210;21.046;2022-12-07T12:24:06;4.50;99.90
11091;DHT22;5599;52.210;21.046;2022-12-07T12:26:49;4.50;1.00
11091;DHT22;5599;52.210;21.046;2022-12-07T12:29:23;4.50;1.00
11091;DHT22;5599;52.210;21.046;2022-12-07T12:32:10;4.40;99.90
11091;DHT22;5599;52.210;21.046;2022-12-07T12:34:56;4.40;99.90
11091;DHT22;5599;52.210;21.046;2022-12-07T12:37:42;4.40;99.90
11091;DHT22;5599;52.210;21.046;2022-12-07T12:40:45;4.40;99.90
11091;DHT22;5599;52.210;21.046;2022-12-07T12:46:49;4.40;99.90
11091;DHT22;5599;52.210;21.046;2022-12-07T12:49:43;4.40;99.90
11091;DHT22;5599;52.210;21.046;2022-12-07T12:55:46;4.40;99.90
11091;DHT22;5599;52.210;21.046;2022-12-07T12:58:32;4.30;99.90
11091;DHT22;5599;52.210;21.046;2022-12-07T13:04:47;4.20;99.90
11091;DHT22;5599;52.210;21.046;2022-12-07T13:10:37;4.20;99.90
11091;DHT22;5599;52.210;21.046;2022-12-07T13:13:32;4.20;26.70
11091;DHT22;5599;52.210;21.046;2022-12-07T13:22:49;4.10;99.90
11091;DHT22;5599;52.210;21.046;2022-12-07T13:25:29;4.10;95.40
11091;DHT22;5599;52.210;21.046;2022-12-07T13:28:02;4.10;99.90
11091;DHT22;5599;52.210;21.046;2022-12-07T13:30:46;4.20;99.90
11091;DHT22;5599;52.210;21.046;2022-12-07T13:33:16;4.20;1.00
11091;DHT22;5599;52.210;21.046;2022-12-07T13:35:46;4.10;1.00
11091;DHT22;5599;52.210;21.046;2022-12-07T13:38:23;4.20;1.00
11091;DHT22;5599;52.210;21.046;2022-12-07T13:41:01;4.30;94.80
11091;DHT22;5599;52.210;21.046;2022-12-07T13:43:30;4.30;6.30
11091;DHT22;5599;52.210;21.046;2022-12-07T13:45:59;4.20;1.00
11091;DHT22;5599;52.210;21.046;2022-12-07T13:48:32;4.20;1.00
11091;DHT22;5599;52.210;21.046;2022-12-07T13:51:03;4.10;35.00
11091;DHT22;5599;52.210;21.046;2022-12-07T13:53:46;4.10;99.90
11091;DHT22;5599;52.210;21.046;2022-12-07T13:56:16;4.00;99.90
11091;DHT22;5599;52.210;21.046;2022-12-07T13:58:46;4.00;99.90
11091;DHT22;5599;52.210;21.046;2022-12-07T14:01:15;4.00;99.90
11091;DHT22;5599;52.210;21.046;2022-12-07T14:03:45;3.90;99.90
11091;DHT22;5599;52.210;21.046;2022-12-07T14:06:23;3.90;99.90
11091;DHT22;5599;52.210;21.046;2022-12-07T14:09:14;3.90;99.90
11091;DHT22;5599;52.210;21.046;2022-12-07T14:11:45;3.80;1.00
11091;DHT22;5599;52.210;21.046;2022-12-07T14:14:19;3.80;99.90
11091;DHT22;5599;52.210;21.046;2022-12-07T14:16:59;3.80;99.90
11091;DHT22;5599;52.210;21.046;2022-12-07T14:19:47;3.70;99.90
11091;DHT22;5599;52.210;21.046;2022-12-07T14:22:26;3.70;99.90
11091;DHT22;5599;52.210;21.046;2022-12-07T14:25:01;3.70;99.90
11091;DHT22;5599;52.210;21.046;2022-12-07T14:27:33;3.70;99.90
11091;DHT22;5599;52.210;21.046;2022-12-07T14:30:04;3.60;99.90
11091;DHT22;5599;52.210;21.046;2022-12-07T14:32:36;3.50;99.90
11091;DHT22;5599;52.210;21.046;2022-12-07T14:35:10;3.50;99.90
11091;DHT22;5599;52.210;21.046;2022-12-07T14:37:42;3.50;99.90
11091;DHT22;5599;52.210;21.046;2022-12-07T14:40:15;3.50;99.90
11091;DHT22;5599;52.210;21.046;2022-12-07T14:42:45;3.50;99.90
11091;DHT22;5599;52.210;21.046;2022-12-07T14:45:17;3.50;99.90
11091;DHT22;5599;52.210;21.046;2022-12-07T14:47:47;3.50;99.90
11091;DHT22;5599;52.210;21.046;2022-12-07T14:50:39;3.40;99.90
11091;DHT22;5599;52.210;21.046;2022-12-07T14:53:34;3.40;99.90
11091;DHT22;5599;52.210;21.046;2022-12-07T14:56:06;3.30;99.90
11091;DHT22;5599;52.210;21.046;2022-12-07T14:58:35;3.30;99.90
11091;DHT22;5599;52.210;21.046;2022-12-07T15:01:05;3.20;1.00
11091;DHT22;5599;52.210;21.046;2022-12-07T15:03:34;3.30;1.00
11091;DHT22;5599;52.210;21.046;2022-12-07T15:06:06;3.20;1.00
11091;DHT22;5599;52.210;21.046;2022-12-07T15:08:35;3.20;1.00
11091;DHT22;5599;52.210;21.046;2022-12-07T15:11:08;3.20;1.00
11091;DHT22;5599;52.210;21.046;2022-12-07T15:13:38;3.20;1.00
11091;DHT22;5599;52.210;21.046;2022-12-07T15:16:25;3.20;1.00
11091;DHT22;5599;52.210;21.046;2022-12-07T15:19:12;3.10;1.00
11091;DHT22;5599;52.210;21.046;2022-12-07T15:21:57;3.10;1.00
11091;DHT22;5599;52.210;21.046;2022-12-07T15:24:27;3.10;1.00
11091;DHT22;5599;52.210;21.046;2022-12-07T15:26:57;3.10;1.00
11091;DHT22;5599;52.210;21.046;2022-12-07T15:29:27;3.10;1.00
11091;DHT22;5599;52.210;21.046;2022-12-07T15:31:56;3.10;1.00
11091;DHT22;5599;52.210;21.046;2022-12-07T15:34:26;3.00;1.00
11091;DHT22;5599;52.210;21.046;2022-12-07T15:37:06;3.00;1.00
11091;DHT22;5599;52.210;21.046;2022-12-07T15:39:36;3.00;1.00
11091;DHT22;5599;52.210;21.046;2022-12-07T15:42:06;3.00;1.00
11091;DHT22;5599;52.210;21.046;2022-12-07T15:44:35;3.00;1.00
11091;DHT22;5599;52.210;21.046;2022-12-07T15:47:22;3.00;1.00
11091;DHT22;5599;52.210;21.046;2022-12-07T15:49:51;3.00;1.00
11091;DHT22;5599;52.210;21.046;2022-12-07T15:52:20;2.90;1.00
11091;DHT22;5599;52.210;21.046;2022-12-07T15:54:49;3.00;1.00
11091;DHT22;5599;52.210;21.046;2022-12-07T15:57:19;3.00;1.00
11091;DHT22;5599;52.210;21.046;2022-12-07T15:59:52;2.90;1.00
11091;DHT22;5599;52.210;21.046;2022-12-07T16:02:21;3.00;1.00
11091;DHT22;5599;52.210;21.046;2022-12-07T16:04:52;3.00;1.00
11091;DHT22;5599;52.210;21.046;2022-12-07T16:07:21;3.00;1.00
11091;DHT22;5599;52.210;21.046;2022-12-07T16:09:50;2.90;1.00
11091;DHT22;5599;52.210;21.046;2022-12-07T16:12:21;3.00;1.00
11091;DHT22;5599;52.210;21.046;2022-12-07T16:14:50;3.10;4.70
11091;DHT22;5599;52.210;21.046;2022-12-07T16:17:19;3.00;1.00
11091;DHT22;5599;52.210;21.046;2022-12-07T16:19:48;3.00;1.00
11091;DHT22;5599;52.210;21.046;2022-12-07T16:22:17;3.10;1.00
11091;DHT22;5599;52.210;21.046;2022-12-07T16:24:46;3.10;1.00
11091;DHT22;5599;52.210;21.046;2022-12-07T16:27:16;3.20;1.00
11091;DHT22;5599;52.210;21.046;2022-12-07T16:29:47;3.10;1.00
11091;DHT22;5599;52.210;21.046;2022-12-07T16:32:16;3.20;1.00
11091;DHT22;5599;52.210;21.046;2022-12-07T16:34:45;3.20;1.00
11091;DHT22;5599;52.210;21.046;2022-12-07T16:37:15;3.30;1.00
11091;DHT22;5599;52.210;21.046;2022-12-07T16:39:44;3.20;1.00
11091;DHT22;5599;52.210;21.046;2022-12-07T16:42:14;3.30;1.00
11091;DHT22;5599;52.210;21.046;2022-12-07T16:44:43;3.30;1.00
11091;DHT22;5599;52.210;21.046;2022-12-07T16:47:14;3.30;1.00
11091;DHT22;5599;52.210;21.046;2022-12-07T16:49:44;3.40;1.00
11091;DHT22;5599;52.210;21.046;2022-12-07T16:52:13;3.30;1.00
11091;DHT22;5599;52.210;21.046;2022-12-07T16:54:48;3.30;1.00
11091;DHT22;5599;52.210;21.046;2022-12-07T16:57:18;3.30;1.00
11091;DHT22;5599;52.210;21.046;2022-12-07T16:59:50;3.30;1.00